Time;durP1;ratioP1;P1;durP2;ratioP2;P2;SDS_P1;SDS_P2;PMS_P1;PMS_P2;Temp;Humidity;BMP_temperature;BMP_pressure;BME280_temperature;BME280_humidity;BME280_pressure;Samples;Min_cycle;Max_cycle;Signal;HPM_P1;HPM_P2
2023/12/30 00:00:56;;;;;;;1.88;1.30;;;;;;;9.35;97.79;97885.91;2562702;28;20031;-87
2023/12/30 00:02:14;;;;;;;2.40;1.00;;;;;;;9.44;96.60;97883.00;2541721;29;20042;-87
2023/12/30 00:03:32;;;;;;;2.25;1.08;;;;;;;9.43;97.36;97891.75;2555461;28;20073;-87
2023/12/30 00:04:49;;;;;;;1.90;0.90;;;;;;;9.35;97.57;97889.34;2573547;28;20100;-87
2023/12/30 00:06:05;;;;;;;1.45;0.68;;;;;;;9.61;94.52;97898.13;2573346;28;20470;-87
2023/12/30 00:07:22;;;;;;;1.05;0.93;;;;;;;9.48;96.19;97895.06;2552642;29;20123;-87
2023/12/30 00:08:38;;;;;;;0.70;0.68;;;;;;;9.58;95.62;97891.25;2550091;28;20183;-87
2023/12/30 00:09:54;;;;;;;1.38;1.20;;;;;;;9.49;95.95;97901.13;2566384;28;20094;-87
2023/12/30 00:11:10;;;;;;;3.72;2.10;;;;;;;9.40;95.42;97897.91;2552838;28;20043;-87
2023/12/30 00:12:27;;;;;;;1.67;1.10;;;;;;;9.63;95.05;97896.31;2551719;28;20054;-87
2023/12/30 00:13:43;;;;;;;0.93;0.75;;;;;;;9.58;94.38;97890.38;2567630;28;20155;-87
2023/12/30 00:14:59;;;;;;;1.67;1.23;;;;;;;9.41;95.85;97894.41;2572233;28;20058;-88
2023/12/30 00:16:15;;;;;;;1.50;1.08;;;;;;;9.45;95.00;97892.56;2572846;28;20030;-86
2023/12/30 00:17:31;;;;;;;0.95;0.77;;;;;;;9.65;93.49;97891.91;2554089;29;20043;-87
2023/12/30 00:18:47;;;;;;;1.08;0.77;;;;;;;9.49;94.30;97895.91;2551468;28;20499;-87
2023/12/30 00:20:03;;;;;;;4.63;1.80;;;;;;;9.44;95.19;97896.06;2552773;29;20040;-88
2023/12/30 00:21:20;;;;;;;0.60;0.60;;;;;;;9.54;94.05;97886.16;2561758;28;20398;-87
2023/12/30 00:22:36;;;;;;;1.77;1.50;;;;;;;9.49;95.35;97872.38;2573006;28;20088;-87
2023/12/30 00:23:54;;;;;;;1.80;1.10;;;;;;;9.50;95.08;97877.56;2573254;28;20097;-87
2023/12/30 00:25:10;;;;;;;0.80;0.80;;;;;;;9.51;95.00;97868.81;2563126;28;20583;-87
2023/12/30 00:26:28;;;;;;;1.25;0.90;;;;;;;9.45;94.61;97869.03;2557998;28;20054;-86
2023/12/30 00:27:49;;;;;;;1.65;1.30;;;;;;;9.48;94.38;97868.94;2540782;29;20036;-86
2023/12/30 00:29:05;;;;;;;0.73;0.50;;;;;;;9.60;93.05;97863.31;2565205;28;20034;-87
2023/12/30 00:30:21;;;;;;;1.02;0.93;;;;;;;9.49;94.59;97865.41;2554274;29;20047;-87
2023/12/30 00:31:37;;;;;;;0.50;0.45;;;;;;;9.50;94.35;97866.25;2560692;28;20700;-87
2023/12/30 00:32:53;;;;;;;1.33;0.82;;;;;;;9.47;95.65;97868.06;2563350;28;20051;-87
2023/12/30 00:34:09;;;;;;;0.98;0.88;;;;;;;9.57;94.34;97870.38;2561555;28;20098;-87
2023/12/30 00:35:25;;;;;;;1.15;0.88;;;;;;;9.39;94.22;97864.88;2565115;28;20038;-87
2023/12/30 00:36:43;;;;;;;0.70;0.63;;;;;;;9.66;93.33;97866.59;2572336;28;20050;-87
2023/12/30 00:37:59;;;;;;;1.08;1.02;;;;;;;9.44;94.98;97872.56;2558019;28;20047;-87
2023/12/30 00:39:15;;;;;;;0.80;0.80;;;;;;;9.53;95.21;97876.63;2559631;28;20050;-87
2023/12/30 00:40:31;;;;;;;0.77;0.73;;;;;;;9.53;93.21;97866.16;2572693;28;20042;-87
2023/12/30 00:41:48;;;;;;;2.22;0.82;;;;;;;9.42;93.57;97862.16;2561551;28;20070;-87
2023/12/30 00:43:05;;;;;;;2.05;0.93;;;;;;;9.40;93.87;97855.25;2556776;28;20051;-87
2023/12/30 00:44:22;;;;;;;0.70;0.70;;;;;;;9.40;93.89;97865.69;2557657;28;20096;-87
2023/12/30 00:45:38;;;;;;;1.88;1.40;;;;;;;9.31;94.88;97866.84;2559934;28;20417;-87
2023/12/30 00:46:53;;;;;;;0.60;0.60;;;;;;;9.38;94.42;97865.78;2556357;29;20043;-87
2023/12/30 00:48:10;;;;;;;1.10;1.00;;;;;;;9.30;94.46;97866.03;2558682;28;20126;-87
2023/12/30 00:49:27;;;;;;;1.38;0.70;;;;;;;9.26;95.44;97864.38;2559246;28;20043;-87
2023/12/30 00:50:44;;;;;;;1.40;0.90;;;;;;;9.38;94.54;97862.28;2566808;28;20034;-87
2023/12/30 00:52:00;;;;;;;1.67;1.10;;;;;;;9.33;95.15;97871.13;2562400;28;20035;-87
2023/12/30 00:53:16;;;;;;;0.88;0.63;;;;;;;9.32;94.86;97868.56;2570770;28;20114;-87
2023/12/30 00:54:32;;;;;;;0.98;0.75;;;;;;;9.29;94.90;97861.69;2560964;28;20606;-87
2023/12/30 00:55:48;;;;;;;0.80;0.70;;;;;;;9.24;95.48;97862.75;2566123;28;20033;-87
2023/12/30 00:57:04;;;;;;;1.55;0.88;;;;;;;9.22;96.11;97867.13;2561031;28;20027;-87
2023/12/30 00:58:20;;;;;;;1.17;0.90;;;;;;;9.32;94.71;97873.78;2553946;28;20461;-86
2023/12/30 00:59:36;;;;;;;1.95;1.30;;;;;;;9.17;96.65;97873.38;2551721;29;20606;-87
2023/12/30 01:00:52;;;;;;;0.80;0.80;;;;;;;9.30;95.50;97875.59;2555008;28;20046;-86
2023/12/30 01:02:08;;;;;;;1.77;0.75;;;;;;;9.35;95.88;97884.13;2553341;28;20047;-87
2023/12/30 01:03:25;;;;;;;1.13;0.90;;;;;;;9.27;95.81;97887.00;2566882;28;20079;-87
2023/12/30 01:04:41;;;;;;;1.10;1.00;;;;;;;9.16;97.40;97882.13;2567203;28;20050;-88
2023/12/30 01:21:22;;;;;;;1.27;0.90;;;;;;;9.46;94.51;97905.56;2562865;28;20117;-86
2023/12/30 01:22:38;;;;;;;1.23;0.60;;;;;;;9.56;92.78;97892.19;2553481;28;20075;-86
2023/12/30 01:23:54;;;;;;;0.70;0.55;;;;;;;9.36;94.32;97896.31;2554004;28;20037;-86
2023/12/30 01:25:12;;;;;;;1.83;1.15;;;;;;;9.32;94.92;97889.47;2555691;28;20057;-87
2023/12/30 01:26:29;;;;;;;1.40;1.00;;;;;;;9.33;95.57;97878.97;2547678;29;20611;-86
2023/12/30 01:27:45;;;;;;;1.52;1.00;;;;;;;9.31;95.48;97888.63;2540694;29;20036;-86
2023/12/30 01:29:03;;;;;;;1.15;0.85;;;;;;;9.27;95.68;97888.75;2551739;28;20051;-87
2023/12/30 01:30:19;;;;;;;0.90;0.77;;;;;;;9.30;95.83;97886.91;2562053;28;20047;-86
2023/12/30 01:31:35;;;;;;;0.77;0.77;;;;;;;9.24;96.40;97879.25;2540759;29;20103;-87
2023/12/30 01:32:52;;;;;;;1.23;0.77;;;;;;;9.29;95.32;97872.16;2538597;29;20471;-88
2023/12/30 01:34:09;;;;;;;1.00;0.50;;;;;;;9.35;95.11;97870.22;2545461;29;20041;-87
2023/12/30 01:35:27;;;;;;;0.73;0.70;;;;;;;9.19;96.53;97862.88;2537652;29;20119;-89
2023/12/30 01:36:42;;;;;;;2.05;0.98;;;;;;;9.23;96.81;97866.25;2555935;28;20043;-86
2023/12/30 01:37:59;;;;;;;1.42;1.10;;;;;;;9.11;97.44;97863.13;2562830;28;20529;-87
2023/12/30 01:39:17;;;;;;;2.13;0.77;;;;;;;9.17;97.97;97862.94;2561062;28;20126;-86
2023/12/30 01:40:32;;;;;;;0.77;0.77;;;;;;;9.23;96.43;97874.09;2556367;28;20630;-87
2023/12/30 01:41:50;;;;;;;2.08;0.80;;;;;;;9.14;98.16;97880.44;2555824;28;20520;-86
2023/12/30 01:43:21;;;;;;;2.35;1.08;;;;;;;9.12;97.65;97890.09;2561298;28;20528;-88
2023/12/30 01:44:37;;;;;;;1.75;1.13;;;;;;;9.05;98.59;97876.38;2551373;29;20135;-88
2023/12/30 01:45:59;;;;;;;0.50;0.50;;;;;;;9.24;96.62;97875.81;2535134;29;20044;-89
2023/12/30 01:47:18;;;;;;;0.80;0.80;;;;;;;9.05;98.87;97886.81;2529175;29;20771;-87
2023/12/30 01:48:34;;;;;;;1.08;0.70;;;;;;;9.14;98.04;97893.50;2544754;28;20085;-88
2023/12/30 01:49:51;;;;;;;1.08;0.90;;;;;;;9.15;98.11;97888.25;2543460;29;20058;-87
2023/12/30 01:51:09;;;;;;;0.73;0.60;;;;;;;9.16;98.00;97892.56;2547367;29;20055;-86
2023/12/30 01:52:25;;;;;;;5.88;1.00;;;;;;;9.28;97.24;97898.31;2550037;29;20047;-86
2023/12/30 01:53:43;;;;;;;1.15;0.77;;;;;;;9.23;98.16;97889.78;2553679;29;20044;-87
2023/12/30 01:54:59;;;;;;;1.02;0.80;;;;;;;9.16;99.39;97895.16;2563830;28;20510;-89
2023/12/30 01:56:17;;;;;;;1.33;0.73;;;;;;;9.06;98.93;97883.28;2560917;28;20050;-86
2023/12/30 01:57:34;;;;;;;3.13;1.20;;;;;;;9.13;98.77;97882.22;2561637;28;20134;-89
2023/12/30 01:58:51;;;;;;;1.00;0.90;;;;;;;8.99;99.97;97882.63;2562381;28;20035;-89
2023/12/30 02:00:08;;;;;;;1.13;1.02;;;;;;;9.03;100.00;97886.00;2552377;29;20043;-88
2023/12/30 02:01:26;;;;;;;1.05;0.77;;;;;;;9.13;99.82;97890.06;2553770;28;20039;-88
2023/12/30 02:02:43;;;;;;;2.25;1.00;;;;;;;9.04;100.00;97878.13;2560511;28;20093;-88
2023/12/30 02:03:59;;;;;;;1.00;0.88;;;;;;;8.99;100.00;97873.97;2552870;29;20055;-89
2023/12/30 02:05:15;;;;;;;2.20;0.77;;;;;;;8.99;100.00;97866.13;2549959;29;20106;-88
2023/12/30 02:06:32;;;;;;;1.27;0.80;;;;;;;9.06;100.00;97874.63;2552131;29;20039;-89
2023/12/30 02:07:48;;;;;;;0.85;0.75;;;;;;;8.83;100.00;97863.13;2557459;28;20039;-88
2023/12/30 02:09:05;;;;;;;1.00;0.77;;;;;;;8.79;100.00;97864.97;2560849;28;20106;-88
2023/12/30 02:10:22;;;;;;;1.17;1.02;;;;;;;8.93;100.00;97868.91;2560700;28;20051;-88
2023/12/30 02:11:38;;;;;;;1.20;0.50;;;;;;;8.98;100.00;97875.69;2549721;29;20048;-88
2023/12/30 02:12:54;;;;;;;0.85;0.70;;;;;;;8.99;100.00;97869.56;2556514;28;20093;-88
2023/12/30 02:14:27;;;;;;;1.08;0.82;;;;;;;9.03;100.00;97866.00;2550983;29;20043;-88
2023/12/30 02:15:43;;;;;;;2.55;1.40;;;;;;;9.14;100.00;97870.00;2552373;29;20047;-88
2023/12/30 02:16:59;;;;;;;1.77;1.13;;;;;;;9.03;100.00;97868.59;2545045;29;20040;-88
2023/12/30 02:18:15;;;;;;;3.50;1.88;;;;;;;8.97;100.00;97874.00;2535932;29;20479;-88
2023/12/30 02:19:33;;;;;;;1.30;0.90;;;;;;;9.14;100.00;97865.63;2538417;29;20134;-89
2023/12/30 02:20:49;;;;;;;1.63;1.10;;;;;;;9.22;100.00;97867.13;2538870;29;20043;-88
2023/12/30 02:22:05;;;;;;;1.60;0.80;;;;;;;9.03;100.00;97863.38;2532500;29;20047;-88
2023/12/30 02:23:21;;;;;;;2.70;1.50;;;;;;;8.95;100.00;97862.75;2542502;29;20058;-88
2023/12/30 02:24:37;;;;;;;0.85;0.68;;;;;;;8.89;100.00;97861.19;2546624;29;20158;-88
2023/12/30 02:25:53;;;;;;;0.70;0.60;;;;;;;8.98;100.00;97867.03;2544418;28;20076;-88
2023/12/30 02:27:09;;;;;;;0.85;0.52;;;;;;;9.11;100.00;97870.97;2548498;29;20594;-88
2023/12/30 02:28:25;;;;;;;2.20;1.25;;;;;;;9.03;100.00;97871.22;2551796;28;20039;-88
2023/12/30 02:29:41;;;;;;;1.92;1.05;;;;;;;9.00;100.00;97870.44;2561161;28;20554;-88
2023/12/30 02:30:58;;;;;;;0.60;0.60;;;;;;;9.12;100.00;97866.59;2563532;28;20157;-87
2023/12/30 02:32:14;;;;;;;1.00;0.80;;;;;;;9.03;100.00;97865.13;2559370;29;20038;-87
2023/12/30 02:33:30;;;;;;;1.77;1.25;;;;;;;9.10;100.00;97856.19;2562696;28;20054;-87
2023/12/30 02:34:46;;;;;;;1.02;0.93;;;;;;;9.11;100.00;97855.31;2549478;29;20053;-87
2023/12/30 02:36:02;;;;;;;1.00;0.88;;;;;;;9.17;100.00;97873.38;2552687;29;20460;-87
2023/12/30 02:37:18;;;;;;;1.10;0.75;;;;;;;9.21;100.00;97860.22;2557063;28;20067;-88
2023/12/30 02:38:34;;;;;;;1.60;1.10;;;;;;;9.24;100.00;97850.53;2544941;29;20055;-87
2023/12/30 02:39:50;;;;;;;0.80;0.60;;;;;;;9.32;100.00;97858.97;2533025;29;20524;-88
2023/12/30 02:41:07;;;;;;;0.43;0.43;;;;;;;9.31;100.00;97859.03;2547751;29;20158;-87
2023/12/30 02:42:23;;;;;;;10.73;0.98;;;;;;;9.28;100.00;97864.34;2553330;29;20450;-87
2023/12/30 02:43:57;;;;;;;1.83;0.80;;;;;;;9.38;100.00;97852.72;2563424;28;20499;-88
2023/12/30 02:45:13;;;;;;;4.05;1.13;;;;;;;9.31;100.00;97853.78;2529763;29;20484;-88
2023/12/30 02:46:29;;;;;;;1.23;0.70;;;;;;;9.40;100.00;97855.25;2546302;28;20030;-87
2023/12/30 02:47:46;;;;;;;2.28;1.00;;;;;;;9.25;100.00;97857.47;2548819;29;20044;-88
2023/12/30 02:49:05;;;;;;;0.88;0.70;;;;;;;9.31;100.00;97851.19;2546799;29;20077;-88
2023/12/30 02:50:22;;;;;;;0.57;0.57;;;;;;;9.35;100.00;97860.63;2563728;28;20077;-88
2023/12/30 02:51:38;;;;;;;0.93;0.75;;;;;;;9.33;100.00;97868.53;2548611;29;20039;-88
2023/12/30 02:52:55;;;;;;;2.67;1.48;;;;;;;9.33;100.00;97863.31;2549668;29;20086;-87
2023/12/30 02:54:11;;;;;;;0.50;0.43;;;;;;;9.25;100.00;97860.06;2562373;28;20097;-88
2023/12/30 02:55:28;;;;;;;0.70;0.60;;;;;;;9.23;100.00;97858.44;2556462;28;20042;-88
2023/12/30 02:56:45;;;;;;;1.83;0.90;;;;;;;9.12;100.00;97864.84;2558352;29;20388;-88
2023/12/30 02:58:01;;;;;;;0.90;0.82;;;;;;;9.06;100.00;97859.78;2553128;29;20023;-88
2023/12/30 02:59:17;;;;;;;1.02;0.70;;;;;;;9.11;100.00;97864.88;2552982;29;20476;-88
2023/12/30 03:00:33;;;;;;;0.65;0.65;;;;;;;9.19;100.00;97868.94;2555572;28;20047;-88
2023/12/30 03:01:49;;;;;;;1.00;0.70;;;;;;;9.25;100.00;97864.47;2565175;28;20100;-87
2023/12/30 03:03:05;;;;;;;0.50;0.50;;;;;;;9.10;100.00;97869.25;2556548;28;20036;-88
2023/12/30 03:04:25;;;;;;;1.00;0.70;;;;;;;9.19;100.00;97858.50;2549682;29;20400;-87
2023/12/30 03:05:42;;;;;;;0.82;0.82;;;;;;;9.25;100.00;97867.91;2537357;29;20056;-87
2023/12/30 03:06:58;;;;;;;3.10;0.90;;;;;;;9.19;100.00;97881.16;2546820;29;20173;-88
2023/12/30 03:08:14;;;;;;;1.10;0.80;;;;;;;9.28;100.00;97870.41;2552332;29;20723;-89
2023/12/30 03:09:29;;;;;;;0.68;0.47;;;;;;;9.18;100.00;97875.06;2551938;29;20043;-88
2023/12/30 03:10:45;;;;;;;0.80;0.70;;;;;;;9.21;100.00;97881.97;2552397;29;20043;-87
2023/12/30 03:12:04;;;;;;;1.13;1.02;;;;;;;9.20;100.00;97885.50;2561517;28;20046;-87
2023/12/30 03:13:20;;;;;;;0.60;0.60;;;;;;;9.33;100.00;97880.72;2569670;28;20092;-88
2023/12/30 03:14:36;;;;;;;0.65;0.60;;;;;;;9.29;100.00;97884.34;2558438;29;20043;-88
2023/12/30 03:15:54;;;;;;;1.58;1.23;;;;;;;9.21;100.00;97886.31;2562403;28;20070;-87
2023/12/30 03:17:10;;;;;;;2.08;0.80;;;;;;;9.27;100.00;97880.94;2555073;29;20067;-87
2023/12/30 03:18:28;;;;;;;0.80;0.60;;;;;;;9.50;100.00;97888.03;2552602;29;20135;-87
2023/12/30 03:19:44;;;;;;;0.60;0.60;;;;;;;9.30;100.00;97883.44;2543178;29;20036;-87
2023/12/30 03:21:00;;;;;;;1.23;0.98;;;;;;;9.23;100.00;97881.94;2558101;28;20053;-87
2023/12/30 03:22:17;;;;;;;1.00;0.70;;;;;;;9.33;100.00;97880.72;2564188;28;20039;-88
2023/12/30 03:23:34;;;;;;;0.95;0.70;;;;;;;9.40;100.00;97882.25;2567999;28;20065;-88
2023/12/30 03:24:50;;;;;;;0.60;0.60;;;;;;;9.33;100.00;97889.41;2558936;29;20058;-87
2023/12/30 03:26:10;;;;;;;4.40;0.70;;;;;;;9.26;100.00;97881.84;2564340;28;20050;-87
2023/12/30 03:27:25;;;;;;;1.33;0.88;;;;;;;9.33;100.00;97884.19;2569870;28;20402;-87
2023/12/30 03:28:43;;;;;;;0.82;0.75;;;;;;;9.33;100.00;97884.19;2561336;28;20082;-87
2023/12/30 03:29:59;;;;;;;0.95;0.60;;;;;;;9.40;100.00;97890.09;2555651;29;20082;-87
2023/12/30 03:31:21;;;;;;;1.48;0.98;;;;;;;9.33;100.00;97889.41;2548961;28;20045;-88
2023/12/30 03:32:37;;;;;;;0.95;0.80;;;;;;;9.31;100.00;97880.78;2558715;29;20126;-87
2023/12/30 03:33:55;;;;;;;0.82;0.80;;;;;;;9.24;100.00;97884.47;2560137;28;20133;-88
2023/12/30 03:35:11;;;;;;;0.90;0.80;;;;;;;9.25;100.00;97880.13;2569998;28;20042;-87
2023/12/30 03:36:27;;;;;;;1.20;1.10;;;;;;;9.19;100.00;97874.19;2554139;29;20097;-87
2023/12/30 03:37:43;;;;;;;1.15;0.90;;;;;;;9.16;100.00;97874.28;2552369;28;20410;-87
2023/12/30 03:38:59;;;;;;;0.95;0.75;;;;;;;9.29;100.00;97866.06;2562781;28;20043;-87
2023/12/30 03:40:15;;;;;;;2.47;0.70;;;;;;;9.24;100.00;97875.81;2564038;28;20070;-88
2023/12/30 03:41:31;;;;;;;0.93;0.73;;;;;;;9.16;100.00;97868.22;2555022;29;20031;-88
2023/12/30 03:42:47;;;;;;;0.52;0.52;;;;;;;9.30;100.00;97867.75;2552676;29;20037;-87
2023/12/30 03:44:03;;;;;;;1.20;0.93;;;;;;;9.22;100.00;97868.00;2548485;28;20094;-88
2023/12/30 03:45:19;;;;;;;0.98;0.88;;;;;;;9.14;100.00;97857.81;2551294;28;20031;-88
2023/12/30 03:46:35;;;;;;;0.68;0.60;;;;;;;9.25;100.00;97869.69;2564626;28;20494;-88
2023/12/30 03:47:52;;;;;;;0.90;0.70;;;;;;;9.22;100.00;97861.91;2570037;28;20045;-87
2023/12/30 03:49:09;;;;;;;2.05;1.00;;;;;;;8.96;100.00;97848.78;2569354;28;20053;-87
2023/12/30 03:50:25;;;;;;;2.38;1.13;;;;;;;9.10;100.00;97865.78;2567774;28;20549;-87
2023/12/30 03:51:41;;;;;;;2.63;1.10;;;;;;;9.05;100.00;97868.53;2569579;28;20061;-87
2023/12/30 03:52:57;;;;;;;1.85;1.10;;;;;;;9.04;100.00;97862.47;2554106;29;20143;-87
2023/12/30 03:54:13;;;;;;;1.20;0.70;;;;;;;9.12;100.00;97857.00;2549680;28;20027;-87
2023/12/30 03:55:29;;;;;;;1.48;0.95;;;;;;;9.00;100.00;97857.38;2553518;29;20181;-87
2023/12/30 03:56:47;;;;;;;1.85;0.60;;;;;;;9.07;100.00;97863.28;2549781;28;20134;-88
2023/12/30 03:58:03;;;;;;;1.42;0.90;;;;;;;9.02;100.00;97871.25;2556294;28;20045;-88
2023/12/30 03:59:19;;;;;;;0.98;0.77;;;;;;;8.96;100.00;97869.66;2558533;28;20574;-87
2023/12/30 04:00:35;;;;;;;6.90;0.93;;;;;;;9.04;100.00;97875.53;2549573;29;20083;-88
2023/12/30 04:01:51;;;;;;;0.90;0.68;;;;;;;9.14;100.00;97880.44;2548212;29;20044;-88
2023/12/30 04:03:07;;;;;;;0.60;0.60;;;;;;;9.17;100.00;97872.53;2548192;29;20051;-88
2023/12/30 04:04:23;;;;;;;0.80;0.68;;;;;;;9.01;100.00;97877.38;2560957;28;20093;-87
2023/12/30 04:05:38;;;;;;;0.45;0.45;;;;;;;8.89;100.00;97876.84;2554295;29;20150;-88
2023/12/30 04:06:55;;;;;;;1.10;1.00;;;;;;;8.86;100.00;97870.84;2558926;28;20061;-88
2023/12/30 04:08:12;;;;;;;2.30;0.57;;;;;;;9.27;100.00;97881.75;2574783;28;20031;-88
2023/12/30 04:09:28;;;;;;;0.52;0.50;;;;;;;9.07;100.00;97878.94;2551987;29;20047;-87
2023/12/30 04:10:44;;;;;;;2.97;0.80;;;;;;;8.98;100.00;97891.38;2551306;28;20067;-87
2023/12/30 04:12:00;;;;;;;0.75;0.70;;;;;;;9.06;100.00;97880.69;2551841;29;20162;-87
2023/12/30 04:13:16;;;;;;;0.77;0.60;;;;;;;8.98;100.00;97887.91;2560095;28;20046;-87
2023/12/30 04:14:32;;;;;;;1.02;0.70;;;;;;;8.98;100.00;97880.09;2564609;28;20125;-88
2023/12/30 04:15:48;;;;;;;1.17;0.52;;;;;;;9.03;100.00;97886.88;2567728;28;20545;-88
2023/12/30 04:17:04;;;;;;;1.33;0.93;;;;;;;8.95;100.00;97888.84;2573350;28;20043;-88
2023/12/30 04:18:20;;;;;;;0.85;0.70;;;;;;;9.02;100.00;97892.13;2573066;28;20046;-88
2023/12/30 04:19:36;;;;;;;0.93;0.88;;;;;;;8.94;100.00;97896.72;2563106;28;20419;-87
2023/12/30 04:20:52;;;;;;;1.45;0.63;;;;;;;9.11;100.00;97893.59;2552239;29;20056;-88
2023/12/30 04:22:08;;;;;;;1.67;0.77;;;;;;;9.21;100.00;97894.16;2565546;28;20046;-88
2023/12/30 04:23:24;;;;;;;1.02;0.70;;;;;;;9.04;100.00;97885.09;2571446;28;20043;-88
2023/12/30 04:24:40;;;;;;;0.73;0.60;;;;;;;8.97;100.00;97889.66;2565332;28;20437;-87
2023/12/30 04:25:56;;;;;;;0.82;0.65;;;;;;;8.85;100.00;97897.84;2564350;28;20331;-88
2023/12/30 04:27:12;;;;;;;1.20;0.77;;;;;;;8.88;100.00;97901.22;2556036;29;20047;-89
2023/12/30 04:28:28;;;;;;;1.17;0.80;;;;;;;8.90;100.00;97904.66;2561056;28;20525;-87
2023/12/30 04:29:44;;;;;;;1.30;0.80;;;;;;;8.98;100.00;97898.34;2567418;28;20332;-88
2023/12/30 04:31:01;;;;;;;1.58;0.80;;;;;;;8.86;100.00;97902.16;2568774;28;20037;-88
2023/12/30 04:32:20;;;;;;;0.57;0.50;;;;;;;8.92;100.00;97899.41;2557879;29;20486;-87
2023/12/30 04:33:36;;;;;;;0.90;0.80;;;;;;;8.94;100.00;97900.19;2561524;28;20583;-88
2023/12/30 04:34:54;;;;;;;0.82;0.60;;;;;;;8.86;100.00;97903.03;2568240;28;20059;-88
2023/12/30 04:36:09;;;;;;;0.50;0.50;;;;;;;8.84;100.00;97897.00;2557351;29;20472;-87
2023/12/30 04:37:25;;;;;;;1.40;0.52;;;;;;;8.78;100.00;97901.56;2552012;29;20051;-87
2023/12/30 04:38:41;;;;;;;0.52;0.52;;;;;;;8.87;100.00;97899.53;2528592;29;20057;-88
2023/12/30 04:39:57;;;;;;;1.75;0.90;;;;;;;8.80;100.00;97902.38;2528246;29;20408;-88
2023/12/30 04:41:13;;;;;;;0.77;0.50;;;;;;;8.90;100.00;97906.44;2546114;29;20035;-88
2023/12/30 04:42:30;;;;;;;1.23;0.60;;;;;;;8.77;100.00;97903.31;2552179;29;20050;-88
2023/12/30 04:43:47;;;;;;;0.90;0.80;;;;;;;8.73;100.00;97910.38;2562167;28;20047;-88
2023/12/30 04:45:05;;;;;;;0.85;0.68;;;;;;;8.60;100.00;97906.44;2567663;28;20057;-88
2023/12/30 04:46:21;;;;;;;0.70;0.70;;;;;;;8.65;100.00;97904.53;2557372;29;20093;-87
2023/12/30 04:47:37;;;;;;;1.95;1.42;;;;;;;8.73;100.00;97909.53;2541715;29;20040;-88
2023/12/30 04:48:54;;;;;;;0.88;0.68;;;;;;;8.71;100.00;97906.94;2532417;29;20405;-88
2023/12/30 04:50:11;;;;;;;0.75;0.68;;;;;;;8.79;100.00;97911.94;2549605;28;20046;-88
2023/12/30 04:51:27;;;;;;;1.73;0.93;;;;;;;8.78;100.00;97912.00;2537129;29;20052;-88
2023/12/30 04:52:44;;;;;;;0.73;0.73;;;;;;;8.67;100.00;97905.34;2549609;28;20045;-88
2023/12/30 04:54:00;;;;;;;1.33;0.95;;;;;;;8.63;100.00;97908.94;2557981;29;20035;-87
2023/12/30 04:55:16;;;;;;;0.50;0.50;;;;;;;8.78;100.00;97912.00;2560803;28;20051;-88
2023/12/30 04:56:32;;;;;;;0.60;0.60;;;;;;;8.79;100.00;97898.88;2551717;28;20055;-87
2023/12/30 04:57:48;;;;;;;0.70;0.70;;;;;;;8.74;100.00;97914.72;2557858;28;20043;-88
2023/12/30 04:59:04;;;;;;;0.90;0.70;;;;;;;8.76;100.00;97914.66;2557518;29;20035;-88
2023/12/30 05:00:22;;;;;;;1.80;1.00;;;;;;;8.69;100.00;97911.34;2551742;29;20039;-88
2023/12/30 05:01:38;;;;;;;0.77;0.70;;;;;;;8.69;100.00;97913.13;2551907;29;20070;-88
2023/12/30 05:02:54;;;;;;;0.98;0.82;;;;;;;8.72;100.00;97915.66;2555895;28;20026;-88
2023/12/30 05:04:10;;;;;;;2.28;0.68;;;;;;;8.72;100.00;97910.44;2543865;29;20523;-88
2023/12/30 05:05:26;;;;;;;1.05;0.80;;;;;;;8.60;100.00;97927.31;2556617;28;20051;-87
2023/12/30 05:06:43;;;;;;;0.50;0.47;;;;;;;8.72;100.00;97915.66;2547516;29;20043;-87
2023/12/30 05:08:02;;;;;;;1.08;0.90;;;;;;;8.68;100.00;97920.09;2556932;28;20490;-87
2023/12/30 05:09:19;;;;;;;1.42;0.70;;;;;;;8.73;100.00;97933.00;2557140;29;20039;-88
2023/12/30 05:10:35;;;;;;;4.63;0.65;;;;;;;8.83;100.00;97928.38;2551195;29;20138;-88
2023/12/30 05:11:52;;;;;;;0.88;0.88;;;;;;;8.62;100.00;97934.16;2552022;29;20164;-88
2023/12/30 05:13:09;;;;;;;1.17;0.73;;;;;;;8.77;100.00;97934.63;2552199;29;20034;-88
2023/12/30 05:14:25;;;;;;;1.77;1.13;;;;;;;8.56;100.00;97925.66;2557147;28;20093;-87
2023/12/30 05:15:41;;;;;;;1.10;0.52;;;;;;;8.83;100.00;97929.25;2558206;28;20032;-88
2023/12/30 05:16:57;;;;;;;2.83;0.77;;;;;;;8.65;100.00;97925.41;2554353;29;20051;-88
2023/12/30 05:18:13;;;;;;;1.23;0.77;;;;;;;8.65;100.00;97924.53;2557455;29;20047;-88
2023/12/30 05:19:29;;;;;;;3.72;0.95;;;;;;;8.64;100.00;97928.91;2561637;28;20100;-88
2023/12/30 05:20:45;;;;;;;1.35;0.65;;;;;;;8.60;100.00;97924.69;2568045;28;20061;-88
2023/12/30 05:22:01;;;;;;;0.80;0.68;;;;;;;8.65;100.00;97928.00;2567369;28;20062;-88
2023/12/30 05:23:17;;;;;;;1.30;0.77;;;;;;;8.65;100.00;97932.34;2548711;29;20048;-88
2023/12/30 05:24:33;;;;;;;0.88;0.80;;;;;;;8.65;100.00;97940.19;2551834;29;20031;-88
2023/12/30 05:25:49;;;;;;;1.80;0.80;;;;;;;8.64;100.00;97943.69;2553563;28;20063;-88
2023/12/30 05:27:05;;;;;;;1.25;0.90;;;;;;;8.57;100.00;97932.59;2557850;29;20688;-88
2023/12/30 05:28:21;;;;;;;1.10;0.93;;;;;;;8.54;100.00;97941.38;2536865;29;20438;-88
2023/12/30 05:29:38;;;;;;;1.90;1.27;;;;;;;8.61;100.00;97940.28;2541135;29;20047;-88
2023/12/30 05:30:54;;;;;;;4.22;1.23;;;;;;;8.60;100.00;97938.56;2561237;28;20407;-88
2023/12/30 05:32:10;;;;;;;1.30;0.93;;;;;;;8.70;100.00;97948.75;2557985;29;20027;-88
2023/12/30 05:33:27;;;;;;;1.63;0.90;;;;;;;8.63;100.00;97942.88;2559290;28;20079;-88
2023/12/30 05:34:43;;;;;;;1.13;0.82;;;;;;;8.67;100.00;97948.84;2556818;28;20570;-88
2023/12/30 05:35:59;;;;;;;3.10;0.82;;;;;;;8.75;100.00;97952.97;2559733;28;20106;-89
2023/12/30 05:37:16;;;;;;;6.07;0.90;;;;;;;8.70;100.00;97948.75;2544824;29;20048;-88
2023/12/30 05:38:32;;;;;;;1.25;0.63;;;;;;;8.77;100.00;97945.06;2547795;29;20059;-88
2023/12/30 05:39:50;;;;;;;2.75;0.90;;;;;;;8.73;100.00;97954.75;2558123;28;20046;-86
2023/12/30 05:41:05;;;;;;;1.83;0.90;;;;;;;8.62;100.00;97946.38;2557558;29;20046;-88
2023/12/30 05:42:24;;;;;;;0.95;0.57;;;;;;;8.75;100.00;97946.88;2561806;28;20088;-89
2023/12/30 05:43:41;;;;;;;3.78;0.93;;;;;;;8.68;100.00;97951.41;2546331;29;20202;-88
2023/12/30 05:44:57;;;;;;;1.27;0.68;;;;;;;8.68;100.00;97945.34;2545702;29;20043;-90
2023/12/30 05:46:16;;;;;;;2.20;0.90;;;;;;;8.72;100.00;97945.19;2553974;28;20031;-88
2023/12/30 05:47:32;;;;;;;0.60;0.57;;;;;;;8.85;100.00;97945.72;2547744;29;20618;-88
2023/12/30 05:48:48;;;;;;;1.25;0.70;;;;;;;8.92;100.00;97946.38;2545476;29;20047;-88
2023/12/30 05:50:05;;;;;;;1.15;0.60;;;;;;;8.82;100.00;97951.03;2560674;28;20031;-88
2023/12/30 05:51:21;;;;;;;0.82;0.60;;;;;;;8.70;100.00;97962.66;2567550;28;20064;-88
2023/12/30 05:52:40;;;;;;;1.65;0.73;;;;;;;8.65;100.00;97955.84;2561498;28;20067;-87
2023/12/30 05:53:57;;;;;;;1.23;0.90;;;;;;;8.65;100.00;97963.69;2557997;28;20037;-88
2023/12/30 05:55:13;;;;;;;2.05;0.90;;;;;;;8.75;100.00;97965.13;2556791;29;20043;-88
2023/12/30 05:56:29;;;;;;;0.95;0.70;;;;;;;8.67;100.00;97964.50;2560751;28;20104;-88
2023/12/30 05:57:47;;;;;;;1.13;0.70;;;;;;;8.73;100.00;97957.38;2557216;29;20349;-88
2023/12/30 05:59:03;;;;;;;3.00;0.80;;;;;;;8.62;100.00;97954.19;2546573;29;20047;-88
2023/12/30 06:00:23;;;;;;;1.25;0.68;;;;;;;8.78;100.00;97969.44;2541332;29;20607;-88
2023/12/30 06:01:46;;;;;;;1.40;0.90;;;;;;;8.69;100.00;97962.72;2545614;29;20081;-86
2023/12/30 06:03:04;;;;;;;0.70;0.60;;;;;;;8.58;100.00;97958.63;2567073;28;20073;-85
2023/12/30 06:04:20;;;;;;;0.98;0.85;;;;;;;8.85;100.00;97961.38;2543246;29;20058;-86
2023/12/30 06:05:36;;;;;;;4.53;1.10;;;;;;;8.60;100.00;97956.84;2545052;29;20412;-89
2023/12/30 06:06:53;;;;;;;1.42;0.88;;;;;;;8.58;100.00;97970.81;2551960;29;20047;-88
2023/12/30 06:08:09;;;;;;;0.55;0.55;;;;;;;8.68;100.00;97964.47;2546019;29;20113;-89
2023/12/30 06:09:27;;;;;;;3.58;0.88;;;;;;;8.69;100.00;97965.31;2538778;29;20043;-88
2023/12/30 06:10:49;;;;;;;3.10;0.50;;;;;;;8.57;100.00;97963.88;2545148;29;20133;-88
2023/12/30 06:12:06;;;;;;;1.65;0.65;;;;;;;8.56;100.00;97960.44;2557421;29;20459;-88
2023/12/30 06:13:22;;;;;;;0.82;0.70;;;;;;;8.57;100.00;97975.19;2561478;28;20035;-88
2023/12/30 06:14:40;;;;;;;2.55;1.10;;;;;;;8.60;100.00;97972.50;2556740;29;20047;-86
2023/12/30 06:15:56;;;;;;;1.13;0.60;;;;;;;8.63;100.00;97974.19;2546798;29;20135;-86
2023/12/30 06:17:12;;;;;;;1.33;0.85;;;;;;;8.47;100.00;97978.91;2551023;28;20093;-86
2023/12/30 06:18:30;;;;;;;0.93;0.60;;;;;;;8.54;100.00;97980.50;2557811;29;20431;-89